createdAt,value
2023-05-01T00:00:52.013Z,7.98
2023-05-01T00:06:00.311Z,7.92
2023-05-01T00:11:06.193Z,7.91
2023-05-01T00:16:09.271Z,7.98
2023-05-01T00:21:10.891Z,8.09
2023-05-01T00:26:12.559Z,8.16
2023-05-01T00:31:18.555Z,8.22
2023-05-01T00:36:20.666Z,8.28
2023-05-01T00:41:22.181Z,8.33
2023-05-01T00:46:24.753Z,8.49
2023-05-01T00:51:28.867Z,8.74
2023-05-01T00:56:33.623Z,8.89
2023-05-01T01:01:35.600Z,9.02
2023-05-01T01:06:47.575Z,9.13
2023-05-01T01:12:17.220Z,9.28
2023-05-01T01:17:41.711Z,9.34
2023-05-01T01:22:49.546Z,9.37
2023-05-01T01:28:29.364Z,9.34
2023-05-01T01:33:57.284Z,9.36
2023-05-01T01:39:06.692Z,9.43
2023-05-01T01:44:22.908Z,9.43
2023-05-01T01:49:27.417Z,9.43
2023-05-01T01:54:33.534Z,9.43
2023-05-01T01:59:35.370Z,9.44
2023-05-01T02:04:40.572Z,9.49
2023-05-01T02:09:44.399Z,9.46
2023-05-01T02:14:48.205Z,9.44
2023-05-01T02:19:53.301Z,9.44
2023-05-01T02:24:57.454Z,9.46
2023-05-01T02:29:59.233Z,9.42
2023-05-01T02:35:01.400Z,9.29
2023-05-01T02:40:04.100Z,9.19
2023-05-01T02:45:09.081Z,9.06
2023-05-01T02:50:11.418Z,9.00
2023-05-01T02:55:13.272Z,8.98
2023-05-01T03:00:14.911Z,8.96
2023-05-01T03:05:16.689Z,9.05
2023-05-01T03:10:18.576Z,9.10
2023-05-01T03:15:20.121Z,9.09
2023-05-01T03:20:21.661Z,9.03
2023-05-01T03:25:23.475Z,9.03
2023-05-01T03:30:25.281Z,8.99
2023-05-01T03:35:29.342Z,8.92
2023-05-01T03:40:31.582Z,8.79
2023-05-01T03:46:11.469Z,8.66
2023-05-01T03:51:13.104Z,8.66
2023-05-01T03:56:15.062Z,8.65
2023-05-01T04:01:16.772Z,8.61
2023-05-01T04:06:19.390Z,8.57
2023-05-01T04:11:21.183Z,8.57
2023-05-01T04:16:25.426Z,8.62
2023-05-01T04:21:27.190Z,8.66
2023-05-01T04:26:29.335Z,8.73
2023-05-01T04:31:31.170Z,8.82
2023-05-01T04:36:33.088Z,8.99
2023-05-01T04:41:34.913Z,9.05
2023-05-01T04:46:36.871Z,9.13
2023-05-01T04:51:39.236Z,9.20
2023-05-01T04:56:43.085Z,9.32
2023-05-01T05:01:45.415Z,9.48
2023-05-01T05:06:47.307Z,9.68
2023-05-01T05:11:55.948Z,9.88
2023-05-01T05:16:58.575Z,10.02
2023-05-01T05:22:04.832Z,10.18
2023-05-01T05:27:10.668Z,10.47
2023-05-01T05:32:12.225Z,10.86
2023-05-01T05:37:13.819Z,11.24
2023-05-01T05:42:23.602Z,11.48
2023-05-01T05:47:25.462Z,11.83
2023-05-01T05:52:27.259Z,11.93
2023-05-01T05:57:29.016Z,11.94
2023-05-01T06:02:31.439Z,11.85
2023-05-01T06:07:33.113Z,12.05
2023-05-01T06:12:36.954Z,12.27
2023-05-01T06:17:40.804Z,12.46
2023-05-01T06:22:42.517Z,12.60
2023-05-01T06:27:51.676Z,12.58
2023-05-01T06:32:55.909Z,12.58
2023-05-01T06:37:57.645Z,12.63
2023-05-01T06:42:59.498Z,12.84
2023-05-01T06:48:03.535Z,13.01
2023-05-01T06:53:05.174Z,13.15
2023-05-01T06:58:12.618Z,13.26
2023-05-01T07:03:23.974Z,13.49
2023-05-01T07:08:28.046Z,13.62
2023-05-01T07:13:29.779Z,13.66
2023-05-01T07:18:31.391Z,13.72
2023-05-01T07:23:32.912Z,13.85
2023-05-01T07:28:34.471Z,14.01
2023-05-01T07:33:36.068Z,13.98
2023-05-01T07:38:37.653Z,14.06
2023-05-01T07:43:39.170Z,14.19
2023-05-01T07:48:40.850Z,14.53
2023-05-01T07:53:42.523Z,15.07
2023-05-01T07:58:44.245Z,15.63
2023-05-01T08:03:47.447Z,16.13
2023-05-01T08:08:50.302Z,16.45
2023-05-01T08:13:51.934Z,16.76
2023-05-01T08:18:53.538Z,16.93
2023-05-01T08:23:56.457Z,17.30
2023-05-01T08:28:57.969Z,17.51
2023-05-01T08:33:59.472Z,17.38
2023-05-01T08:39:01.147Z,17.34
2023-05-01T08:44:03.340Z,17.41
2023-05-01T08:49:06.230Z,17.58
2023-05-01T08:54:09.528Z,17.59
2023-05-01T08:59:12.966Z,17.97
2023-05-01T09:04:15.551Z,18.40
2023-05-01T09:09:17.142Z,19.02
2023-05-01T09:14:18.684Z,19.42
2023-05-01T09:19:20.258Z,19.17
2023-05-01T09:24:27.614Z,19.03
2023-05-01T09:29:41.247Z,19.24
2023-05-01T09:34:45.678Z,19.40
2023-05-01T09:39:47.284Z,19.45
2023-05-01T09:44:48.879Z,19.42
2023-05-01T09:49:50.438Z,19.28
2023-05-01T09:55:12.411Z,19.47
2023-05-01T10:00:15.755Z,19.53
2023-05-01T10:05:18.184Z,19.48
2023-05-01T10:10:24.199Z,19.40
2023-05-01T10:15:37.131Z,19.14
2023-05-01T10:20:38.760Z,19.29
2023-05-01T10:25:42.185Z,19.62
2023-05-01T10:30:46.424Z,19.95
2023-05-01T10:35:57.330Z,19.57
2023-05-01T10:40:58.943Z,19.54
2023-05-01T10:46:09.569Z,20.11
2023-05-01T10:51:12.466Z,20.71
2023-05-01T10:56:27.114Z,21.26
2023-05-01T11:01:33.486Z,21.41
2023-05-01T11:06:36.445Z,21.20
2023-05-01T11:11:38.092Z,21.04
2023-05-01T11:16:39.915Z,21.56
2023-05-01T11:21:42.097Z,22.68
2023-05-01T11:26:44.546Z,22.81
2023-05-01T11:31:48.343Z,22.72
2023-05-01T11:36:51.123Z,22.24
2023-05-01T11:42:06.498Z,22.73
2023-05-01T11:47:10.569Z,23.12
2023-05-01T11:52:12.458Z,23.03
2023-05-01T11:57:14.085Z,23.40
2023-05-01T12:02:22.180Z,23.26
2023-05-01T12:07:24.953Z,22.74
2023-05-01T12:12:26.617Z,22.98
2023-05-01T12:17:30.222Z,22.90
2023-05-01T12:22:32.051Z,22.48
2023-05-01T12:27:45.646Z,21.22
2023-05-01T12:32:47.237Z,20.56
2023-05-01T12:37:48.958Z,19.70
2023-05-01T12:42:55.933Z,18.87
2023-05-01T12:47:57.543Z,18.45
2023-05-01T12:53:02.944Z,18.46
2023-05-01T12:58:05.322Z,18.21
2023-05-01T13:03:06.973Z,18.33
2023-05-01T13:08:08.678Z,18.94
2023-05-01T13:13:10.334Z,19.26
2023-05-01T13:18:12.364Z,19.46
2023-05-01T13:23:13.960Z,19.71
2023-05-01T13:28:19.683Z,19.62
2023-05-01T13:33:21.584Z,19.27
2023-05-01T13:38:24.993Z,20.13
2023-05-01T13:43:26.832Z,20.55
2023-05-01T13:48:30.737Z,20.65
2023-05-01T13:53:32.489Z,20.01
2023-05-01T13:58:34.510Z,19.45
2023-05-01T14:03:41.071Z,19.50
2023-05-01T14:08:44.460Z,19.39
2023-05-01T14:13:47.661Z,19.54
2023-05-01T14:18:49.330Z,19.19
2023-05-01T14:23:55.079Z,18.81
2023-05-01T14:28:56.904Z,18.43
2023-05-01T14:34:04.245Z,18.25
2023-05-01T14:39:05.769Z,18.01
2023-05-01T14:44:12.750Z,16.98
2023-05-01T14:49:20.157Z,15.07
2023-05-01T14:54:21.904Z,13.93
2023-05-01T14:59:24.598Z,13.88
2023-05-01T15:04:26.316Z,12.68
2023-05-01T15:09:28.165Z,12.65
2023-05-01T15:14:29.687Z,13.68
2023-05-01T15:19:32.592Z,14.44
2023-05-01T15:24:34.346Z,14.77
2023-05-01T15:29:36.023Z,14.83
2023-05-01T15:34:37.844Z,15.10
2023-05-01T15:39:40.392Z,15.28
2023-05-01T15:44:42.169Z,15.49
2023-05-01T15:49:43.674Z,15.67
2023-05-01T15:54:48.257Z,15.78
2023-05-01T15:59:53.802Z,15.92
2023-05-01T16:04:55.389Z,15.70
2023-05-01T16:09:58.249Z,15.47
2023-05-01T16:15:03.377Z,15.67
2023-05-01T16:20:10.921Z,15.65
2023-05-01T16:25:12.823Z,15.52
2023-05-01T16:30:14.846Z,15.26
2023-05-01T16:35:18.429Z,15.00
2023-05-01T16:40:21.583Z,14.81
2023-05-01T16:45:23.179Z,14.72
2023-05-01T16:50:24.927Z,14.56
2023-05-01T16:55:26.728Z,14.54
2023-05-01T17:00:29.381Z,14.30
2023-05-01T17:05:30.920Z,13.91
2023-05-01T17:10:32.464Z,13.62
2023-05-01T17:15:34.017Z,13.40
2023-05-01T17:20:35.851Z,13.27
2023-05-01T17:25:37.425Z,13.22
2023-05-01T17:30:39.041Z,13.09
2023-05-01T17:35:40.685Z,12.89
2023-05-01T17:40:42.616Z,12.96
2023-05-01T17:45:45.469Z,12.86
2023-05-01T17:50:47.362Z,12.58
2023-05-01T17:55:48.913Z,12.38
2023-05-01T18:00:50.458Z,12.13
2023-05-01T18:05:52.053Z,11.97
2023-05-01T18:10:53.622Z,11.91
2023-05-01T18:15:55.969Z,11.89
2023-05-01T18:20:57.565Z,11.94
2023-05-01T18:25:59.799Z,11.95
2023-05-01T18:31:01.476Z,11.87
2023-05-01T18:36:03.272Z,11.79
2023-05-01T18:41:04.764Z,11.67
2023-05-01T18:46:06.351Z,11.48
2023-05-01T18:51:09.509Z,11.26
2023-05-01T18:56:11.403Z,11.06
2023-05-01T19:01:12.984Z,10.94
2023-05-01T19:06:14.596Z,10.80
2023-05-01T19:11:16.492Z,10.73
2023-05-01T19:16:18.069Z,10.61
2023-05-01T19:21:19.735Z,10.59
2023-05-01T19:26:21.985Z,10.56
2023-05-01T19:31:25.249Z,10.47
2023-05-01T19:36:26.944Z,10.55
2023-05-01T19:41:28.438Z,10.36
2023-05-01T19:46:30.005Z,10.60
2023-05-01T19:51:31.587Z,10.64
2023-05-01T19:56:33.242Z,10.60
2023-05-01T20:01:34.912Z,10.26
2023-05-01T20:06:36.569Z,10.51
2023-05-01T20:11:38.155Z,10.40
2023-05-01T20:16:39.722Z,10.32
2023-05-01T20:21:41.292Z,10.30
2023-05-01T20:26:42.811Z,10.22
2023-05-01T20:31:44.445Z,10.12
2023-05-01T20:36:46.033Z,10.01
2023-05-01T20:41:48.179Z,9.91
2023-05-01T20:46:49.802Z,9.80
2023-05-01T20:51:51.478Z,9.69
2023-05-01T20:56:53.163Z,9.57
2023-05-01T21:01:54.911Z,9.42
2023-05-01T21:06:57.718Z,9.28
2023-05-01T21:11:59.598Z,9.22
2023-05-01T21:17:01.262Z,9.16
2023-05-01T21:22:14.144Z,9.24
2023-05-01T21:27:15.962Z,9.28
2023-05-01T21:32:17.571Z,9.34
2023-05-01T21:37:19.125Z,9.38
2023-05-01T21:42:20.889Z,9.45
2023-05-01T21:47:22.534Z,9.52
2023-05-01T21:52:24.714Z,9.46
2023-05-01T21:57:26.239Z,9.36
2023-05-01T22:02:40.634Z,9.13
2023-05-01T22:07:43.978Z,9.12
2023-05-01T22:12:46.197Z,9.12
2023-05-01T22:17:47.763Z,9.00
2023-05-01T22:22:49.636Z,8.82
2023-05-01T22:27:51.222Z,8.74
2023-05-01T22:32:52.851Z,8.68
2023-05-01T22:37:54.555Z,8.85
2023-05-01T22:42:56.206Z,8.86
2023-05-01T22:47:57.953Z,8.71
2023-05-01T22:53:00.427Z,8.50
2023-05-01T22:58:02.051Z,8.45
2023-05-01T23:03:04.099Z,8.41
2023-05-01T23:08:06.187Z,8.34
2023-05-01T23:13:22.103Z,8.27
2023-05-01T23:18:25.799Z,8.14
2023-05-01T23:23:30.844Z,7.98
2023-05-01T23:28:32.418Z,7.92
2023-05-01T23:33:36.941Z,7.78
2023-05-01T23:38:39.830Z,7.70
2023-05-01T23:43:41.852Z,7.65
2023-05-01T23:48:43.458Z,7.56
2023-05-01T23:53:44.984Z,7.49
2023-05-01T23:58:46.489Z,7.48
